createdAt,value
2023-05-09T00:00:51.071Z,14.11
2023-05-09T00:03:17.604Z,14.12
2023-05-09T00:05:44.155Z,14.11
2023-05-09T00:08:11.113Z,14.09
2023-05-09T00:10:37.651Z,14.07
2023-05-09T00:13:04.463Z,14.06
2023-05-09T00:15:32.073Z,14.02
2023-05-09T00:17:59.443Z,14.03
2023-05-09T00:20:26.173Z,13.99
2023-05-09T00:22:52.960Z,13.97
2023-05-09T00:25:19.436Z,14.00
2023-05-09T00:27:45.983Z,13.95
2023-05-09T00:30:13.541Z,13.97
2023-05-09T00:32:41.376Z,13.98
2023-05-09T00:35:10.314Z,13.99
2023-05-09T00:37:37.217Z,13.98
2023-05-09T00:40:06.230Z,13.99
2023-05-09T00:42:32.863Z,14.00
2023-05-09T00:45:00.190Z,13.97
2023-05-09T00:47:28.674Z,13.98
2023-05-09T00:50:00.054Z,13.98
2023-05-09T00:52:27.152Z,14.03
2023-05-09T00:54:54.866Z,14.07
2023-05-09T00:57:22.368Z,14.03
2023-05-09T00:59:49.546Z,14.01
2023-05-09T01:02:20.139Z,14.04
2023-05-09T01:04:47.429Z,14.00
2023-05-09T01:07:26.600Z,13.99
2023-05-09T01:10:21.506Z,13.94
2023-05-09T01:12:52.481Z,13.91
2023-05-09T01:15:28.325Z,13.90
2023-05-09T01:18:21.870Z,13.88
2023-05-09T01:20:57.493Z,13.87
2023-05-09T01:23:43.988Z,13.86
2023-05-09T01:26:37.480Z,13.85
2023-05-09T01:29:21.454Z,13.83
2023-05-09T01:31:49.190Z,13.84
2023-05-09T01:34:19.318Z,13.85
2023-05-09T01:36:49.324Z,13.85
2023-05-09T01:39:18.371Z,13.83
2023-05-09T01:41:46.351Z,13.85
2023-05-09T01:44:15.580Z,13.86
2023-05-09T01:46:44.396Z,13.89
2023-05-09T01:49:12.160Z,13.88
2023-05-09T01:51:40.807Z,13.80
2023-05-09T01:54:10.984Z,13.77
2023-05-09T01:56:39.740Z,13.75
2023-05-09T01:59:08.135Z,13.78
2023-05-09T02:01:35.952Z,13.76
2023-05-09T02:04:03.969Z,13.77
2023-05-09T02:06:31.720Z,13.76
2023-05-09T02:08:59.317Z,13.74
2023-05-09T02:11:25.911Z,13.77
2023-05-09T02:13:52.696Z,13.69
2023-05-09T02:16:20.774Z,13.74
2023-05-09T02:18:49.210Z,13.72
2023-05-09T02:21:15.764Z,13.67
2023-05-09T02:23:42.469Z,13.65
2023-05-09T02:26:09.240Z,13.63
2023-05-09T02:28:36.612Z,13.62
2023-05-09T02:31:07.394Z,13.57
2023-05-09T02:33:36.112Z,13.55
2023-05-09T02:36:02.764Z,13.59
2023-05-09T02:38:29.297Z,13.62
2023-05-09T02:40:55.793Z,13.61
2023-05-09T02:43:22.299Z,13.57
2023-05-09T02:45:49.091Z,13.63
2023-05-09T02:48:15.701Z,13.68
2023-05-09T02:50:43.458Z,13.64
2023-05-09T02:53:10.058Z,13.72
2023-05-09T02:55:36.550Z,13.71
2023-05-09T02:58:13.460Z,13.67
2023-05-09T03:00:40.977Z,13.68
2023-05-09T03:03:07.573Z,13.68
2023-05-09T03:05:34.321Z,13.62
2023-05-09T03:08:00.842Z,13.62
2023-05-09T03:10:27.348Z,13.61
2023-05-09T03:12:53.971Z,13.58
2023-05-09T03:15:21.327Z,13.59
2023-05-09T03:17:48.176Z,13.60
2023-05-09T03:20:15.758Z,13.64
2023-05-09T03:22:42.451Z,13.67
2023-05-09T03:25:09.546Z,13.75
2023-05-09T03:27:36.192Z,13.73
2023-05-09T03:30:02.939Z,13.74
2023-05-09T03:32:29.675Z,13.75
2023-05-09T03:34:57.190Z,13.71
2023-05-09T03:37:26.257Z,13.71
2023-05-09T03:39:53.501Z,13.64
2023-05-09T03:42:20.314Z,13.61
2023-05-09T03:44:47.939Z,13.59
2023-05-09T03:47:14.760Z,13.61
2023-05-09T03:49:41.823Z,13.63
2023-05-09T03:52:08.306Z,13.59
2023-05-09T03:54:34.820Z,13.64
2023-05-09T03:57:01.674Z,13.63
2023-05-09T03:59:28.419Z,13.62
2023-05-09T04:01:56.078Z,13.59
2023-05-09T04:04:22.972Z,13.56
2023-05-09T04:06:49.498Z,13.57
2023-05-09T04:09:16.016Z,13.55
2023-05-09T04:11:42.481Z,13.54
2023-05-09T04:14:08.970Z,13.44
2023-05-09T04:16:35.530Z,13.44
2023-05-09T04:19:02.612Z,13.41
2023-05-09T04:21:29.141Z,13.49
2023-05-09T04:23:55.764Z,13.57
2023-05-09T04:26:22.875Z,13.63
2023-05-09T04:28:50.058Z,13.60
2023-05-09T04:31:17.517Z,13.58
2023-05-09T04:33:44.608Z,13.56
2023-05-09T04:36:11.372Z,13.54
2023-05-09T04:38:38.092Z,13.61
2023-05-09T04:41:06.093Z,13.60
2023-05-09T04:43:32.833Z,13.58
2023-05-09T04:45:59.434Z,13.61
2023-05-09T04:48:26.200Z,13.59
2023-05-09T04:50:52.695Z,13.60
2023-05-09T04:53:19.202Z,13.64
2023-05-09T04:55:45.808Z,13.72
2023-05-09T04:58:13.475Z,13.65
2023-05-09T05:00:39.984Z,13.67
2023-05-09T05:03:07.078Z,13.70
2023-05-09T05:05:36.929Z,13.69
2023-05-09T05:08:06.728Z,13.73
2023-05-09T05:10:33.739Z,13.75
2023-05-09T05:13:00.242Z,13.76
2023-05-09T05:15:27.122Z,13.72
2023-05-09T05:17:53.715Z,13.78
2023-05-09T05:20:21.236Z,13.81
2023-05-09T05:22:47.783Z,13.81
2023-05-09T05:25:14.532Z,13.86
2023-05-09T05:27:41.314Z,13.92
2023-05-09T05:30:09.796Z,13.96
2023-05-09T05:32:36.334Z,13.99
2023-05-09T05:35:04.994Z,14.03
2023-05-09T05:37:31.840Z,14.10
2023-05-09T05:39:58.532Z,14.10
2023-05-09T05:42:25.059Z,14.12
2023-05-09T05:44:51.817Z,14.16
2023-05-09T05:47:18.275Z,14.19
2023-05-09T05:49:45.502Z,14.18
2023-05-09T05:52:12.051Z,14.16
2023-05-09T05:54:38.608Z,14.16
2023-05-09T05:57:05.730Z,14.16
2023-05-09T05:59:32.236Z,14.15
2023-05-09T06:01:58.738Z,14.20
2023-05-09T06:04:25.247Z,14.15
2023-05-09T06:06:51.732Z,14.16
2023-05-09T06:09:19.333Z,14.17
2023-05-09T06:11:46.075Z,14.13
2023-05-09T06:14:12.555Z,14.19
2023-05-09T06:16:40.945Z,14.17
2023-05-09T06:19:07.474Z,14.20
2023-05-09T06:21:34.822Z,14.18
2023-05-09T06:24:10.255Z,14.13
2023-05-09T06:26:41.287Z,14.08
2023-05-09T06:29:08.154Z,14.13
2023-05-09T06:31:38.408Z,14.08
2023-05-09T06:34:05.471Z,14.06
2023-05-09T06:36:32.508Z,14.05
2023-05-09T06:38:59.539Z,14.09
2023-05-09T06:41:26.181Z,14.05
2023-05-09T06:43:53.238Z,14.07
2023-05-09T06:46:19.821Z,14.06
2023-05-09T06:48:46.571Z,14.06
2023-05-09T06:51:13.278Z,14.07
2023-05-09T06:53:40.011Z,14.06
2023-05-09T06:56:06.651Z,14.10
2023-05-09T06:58:33.198Z,14.14
2023-05-09T07:00:59.697Z,14.13
2023-05-09T07:03:26.189Z,14.14
2023-05-09T07:05:52.767Z,14.17
2023-05-09T07:08:20.258Z,14.22
2023-05-09T07:10:47.006Z,14.23
2023-05-09T07:13:13.851Z,14.22
2023-05-09T07:15:42.456Z,14.18
2023-05-09T07:18:09.719Z,14.13
2023-05-09T07:20:36.570Z,14.08
2023-05-09T07:23:04.442Z,14.12
2023-05-09T07:25:31.131Z,14.15
2023-05-09T07:27:58.136Z,14.19
2023-05-09T07:30:25.498Z,14.13
2023-05-09T07:32:52.761Z,14.13
2023-05-09T07:35:20.486Z,14.10
2023-05-09T07:37:47.327Z,14.04
2023-05-09T07:40:14.907Z,14.04
2023-05-09T07:42:45.092Z,14.01
2023-05-09T07:45:11.970Z,13.96
2023-05-09T07:47:38.594Z,14.00
2023-05-09T07:50:05.943Z,14.01
2023-05-09T07:52:32.551Z,14.00
2023-05-09T07:54:59.039Z,13.98
2023-05-09T07:57:25.653Z,14.08
2023-05-09T07:59:52.347Z,13.99
2023-05-09T08:02:19.434Z,14.10
2023-05-09T08:04:48.870Z,14.17
2023-05-09T08:07:15.687Z,14.16
2023-05-09T08:09:42.371Z,14.17
2023-05-09T08:12:08.944Z,14.16
2023-05-09T08:14:35.789Z,14.21
2023-05-09T08:17:02.814Z,14.30
2023-05-09T08:19:29.569Z,14.33
2023-05-09T08:21:56.075Z,14.36
2023-05-09T08:24:22.945Z,14.38
2023-05-09T08:26:49.479Z,14.41
2023-05-09T08:29:16.510Z,14.46
2023-05-09T08:31:43.560Z,14.44
2023-05-09T08:34:10.116Z,14.40
2023-05-09T08:36:36.619Z,14.47
2023-05-09T08:39:03.161Z,14.55
2023-05-09T08:41:33.619Z,14.58
2023-05-09T08:44:00.404Z,14.58
2023-05-09T08:46:36.624Z,14.54
2023-05-09T08:49:07.258Z,14.53
2023-05-09T08:51:35.499Z,14.52
2023-05-09T08:54:03.316Z,14.48
2023-05-09T08:56:36.685Z,14.49
2023-05-09T08:59:05.765Z,14.46
2023-05-09T09:01:35.115Z,14.47
2023-05-09T09:04:05.422Z,14.47
2023-05-09T09:06:34.360Z,14.40
2023-05-09T09:09:01.978Z,14.42
2023-05-09T09:11:29.238Z,14.42
2023-05-09T09:14:00.535Z,14.42
2023-05-09T09:16:30.027Z,14.44
2023-05-09T09:18:58.930Z,14.47
2023-05-09T09:21:26.426Z,14.52
2023-05-09T09:23:56.008Z,14.51
2023-05-09T09:26:22.500Z,14.47
2023-05-09T09:28:49.086Z,14.51
2023-05-09T09:31:23.501Z,14.56
2023-05-09T09:33:51.125Z,14.57
2023-05-09T09:36:28.624Z,14.62
2023-05-09T09:39:04.803Z,14.62
2023-05-09T09:41:37.080Z,14.64
2023-05-09T09:44:14.083Z,14.67
2023-05-09T09:46:51.248Z,14.70
2023-05-09T09:49:20.155Z,14.71
2023-05-09T09:51:54.688Z,14.69
2023-05-09T09:54:21.743Z,14.69
2023-05-09T09:56:50.134Z,14.68
2023-05-09T09:59:18.372Z,14.70
2023-05-09T10:02:07.896Z,14.72
2023-05-09T10:04:41.755Z,14.70
2023-05-09T10:07:13.540Z,14.67
2023-05-09T10:09:41.416Z,14.70
2023-05-09T10:12:08.799Z,14.68
2023-05-09T10:14:36.729Z,14.69
2023-05-09T10:17:07.295Z,14.65
2023-05-09T10:19:36.108Z,14.66
2023-05-09T10:22:10.157Z,14.63
2023-05-09T10:24:51.275Z,14.56
2023-05-09T10:27:21.665Z,14.60
2023-05-09T10:30:07.744Z,14.59
2023-05-09T10:32:53.272Z,14.61
2023-05-09T10:35:22.980Z,14.56
2023-05-09T10:37:50.568Z,14.56
2023-05-09T10:40:17.736Z,14.58
2023-05-09T10:42:45.185Z,14.61
2023-05-09T10:45:12.804Z,14.60
2023-05-09T10:47:44.247Z,14.63
2023-05-09T10:50:15.723Z,14.67
2023-05-09T10:53:14.048Z,14.66
2023-05-09T10:55:46.521Z,14.70
2023-05-09T10:58:33.772Z,14.70
2023-05-09T11:01:01.850Z,14.71
2023-05-09T11:03:29.752Z,14.69
2023-05-09T11:05:58.920Z,14.73
2023-05-09T11:08:30.600Z,14.68
2023-05-09T11:11:00.905Z,14.74
2023-05-09T11:13:31.487Z,14.76
2023-05-09T11:16:01.705Z,14.78
2023-05-09T11:18:32.842Z,14.78
2023-05-09T11:21:07.031Z,14.79
2023-05-09T11:23:34.120Z,14.79
2023-05-09T11:26:08.078Z,14.79
2023-05-09T11:28:36.779Z,14.77
2023-05-09T11:31:15.154Z,14.80
2023-05-09T11:33:45.015Z,14.81
2023-05-09T11:36:17.969Z,14.80
2023-05-09T11:38:48.561Z,14.78
2023-05-09T11:41:15.804Z,14.78
2023-05-09T11:43:44.621Z,14.76
2023-05-09T11:46:11.601Z,14.85
2023-05-09T11:48:39.597Z,14.88
2023-05-09T11:51:07.254Z,14.83
2023-05-09T11:53:35.369Z,14.87
2023-05-09T11:56:04.657Z,14.87
2023-05-09T11:58:31.609Z,14.88
2023-05-09T12:00:58.574Z,14.85
2023-05-09T12:03:25.624Z,14.94
2023-05-09T12:05:54.568Z,15.02
2023-05-09T12:08:22.864Z,14.99
2023-05-09T12:10:49.713Z,14.94
2023-05-09T12:13:16.409Z,15.01
2023-05-09T12:15:45.869Z,15.00
2023-05-09T12:18:12.651Z,14.99
2023-05-09T12:20:52.568Z,15.04
2023-05-09T12:23:20.003Z,15.08
2023-05-09T12:25:56.990Z,15.09
2023-05-09T12:28:24.851Z,15.11
2023-05-09T12:30:52.889Z,15.05
2023-05-09T12:33:19.995Z,15.03
2023-05-09T12:35:47.521Z,14.97
2023-05-09T12:38:20.492Z,15.02
2023-05-09T12:41:22.519Z,14.98
2023-05-09T12:43:57.611Z,15.03
2023-05-09T12:46:24.330Z,14.98
2023-05-09T12:48:51.918Z,15.03
2023-05-09T12:51:22.190Z,14.95
2023-05-09T12:53:49.520Z,14.89
2023-05-09T12:56:20.893Z,14.84
2023-05-09T12:58:52.635Z,14.82
2023-05-09T13:01:20.589Z,14.75
2023-05-09T13:04:01.209Z,14.76
2023-05-09T13:06:28.403Z,14.76
2023-05-09T13:09:02.867Z,14.76
2023-05-09T13:11:29.844Z,14.80
2023-05-09T13:13:56.887Z,14.83
2023-05-09T13:16:24.152Z,14.85
2023-05-09T13:18:50.775Z,14.83
2023-05-09T13:21:18.422Z,14.87
2023-05-09T13:23:45.611Z,14.88
2023-05-09T13:26:12.619Z,14.87
2023-05-09T13:28:39.343Z,14.83
2023-05-09T13:31:08.328Z,14.81
2023-05-09T13:33:35.045Z,14.81
2023-05-09T13:36:03.179Z,14.72
2023-05-09T13:38:36.623Z,14.72
2023-05-09T13:41:03.469Z,14.74
2023-05-09T13:43:30.344Z,14.75
2023-05-09T13:45:56.997Z,14.79
2023-05-09T13:48:23.542Z,14.79
2023-05-09T13:50:50.868Z,14.82
2023-05-09T13:53:17.322Z,14.83
2023-05-09T13:55:44.750Z,14.90
2023-05-09T13:58:12.233Z,14.87
2023-05-09T14:00:38.698Z,14.86
2023-05-09T14:03:05.714Z,14.87
2023-05-09T14:05:32.529Z,14.86
2023-05-09T14:07:59.115Z,14.86
2023-05-09T14:10:27.133Z,14.88
2023-05-09T14:12:54.150Z,14.84
2023-05-09T14:15:20.858Z,14.83
2023-05-09T14:17:47.615Z,14.84
2023-05-09T14:20:16.071Z,14.83
2023-05-09T14:22:43.039Z,14.81
2023-05-09T14:25:09.781Z,14.87
2023-05-09T14:27:37.101Z,14.74
2023-05-09T14:30:04.785Z,14.68
2023-05-09T14:32:31.343Z,14.58
2023-05-09T14:34:58.105Z,14.46
2023-05-09T14:37:24.588Z,14.43
2023-05-09T14:39:51.395Z,14.38
2023-05-09T14:42:18.365Z,14.38
2023-05-09T14:44:46.104Z,14.42
2023-05-09T14:47:13.083Z,14.45
2023-05-09T14:49:42.201Z,14.48
2023-05-09T14:52:08.690Z,14.38
2023-05-09T14:54:35.600Z,14.40
2023-05-09T14:57:04.677Z,14.40
2023-05-09T14:59:31.511Z,14.34
2023-05-09T15:01:58.267Z,14.40
2023-05-09T15:04:28.366Z,14.46
2023-05-09T15:06:55.325Z,14.49
2023-05-09T15:09:22.568Z,14.47
2023-05-09T15:11:49.996Z,14.51
2023-05-09T15:14:17.024Z,14.52
2023-05-09T15:16:43.781Z,14.52
2023-05-09T15:19:10.760Z,14.58
2023-05-09T15:21:37.537Z,14.62
2023-05-09T15:24:05.521Z,14.61
2023-05-09T15:26:32.258Z,14.68
2023-05-09T15:28:58.974Z,14.61
2023-05-09T15:31:25.746Z,14.64
2023-05-09T15:33:52.896Z,14.73
2023-05-09T15:36:19.331Z,14.78
2023-05-09T15:38:49.366Z,14.76
2023-05-09T15:41:16.336Z,14.79
2023-05-09T15:43:43.106Z,14.82
2023-05-09T15:46:09.863Z,14.77
2023-05-09T15:48:36.387Z,14.75
2023-05-09T15:51:03.981Z,14.74
2023-05-09T15:53:30.751Z,14.68
2023-05-09T15:55:57.308Z,14.57
2023-05-09T15:58:23.936Z,14.63
2023-05-09T16:00:50.895Z,14.65
2023-05-09T16:03:18.583Z,14.64
2023-05-09T16:05:45.357Z,14.72
2023-05-09T16:08:12.481Z,14.71
2023-05-09T16:10:39.146Z,14.70
2023-05-09T16:13:05.833Z,14.70
2023-05-09T16:15:32.654Z,14.67
2023-05-09T16:17:59.298Z,14.73
2023-05-09T16:20:25.800Z,14.70
2023-05-09T16:22:52.314Z,14.66
2023-05-09T16:25:20.764Z,14.68
2023-05-09T16:27:47.303Z,14.65
2023-05-09T16:30:15.014Z,14.64
2023-05-09T16:32:42.894Z,14.59
2023-05-09T16:35:09.732Z,14.61
2023-05-09T16:37:36.447Z,14.55
2023-05-09T16:40:04.676Z,14.51
2023-05-09T16:42:31.405Z,14.45
2023-05-09T16:44:58.069Z,14.47
2023-05-09T16:47:24.625Z,14.52
2023-05-09T16:49:51.340Z,14.45
2023-05-09T16:52:20.222Z,14.38
2023-05-09T16:54:46.716Z,14.39
2023-05-09T16:57:13.551Z,14.38
2023-05-09T16:59:40.171Z,14.36
2023-05-09T17:02:07.212Z,14.38
2023-05-09T17:04:37.529Z,14.38
2023-05-09T17:07:04.508Z,14.35
2023-05-09T17:09:32.088Z,14.37
2023-05-09T17:11:59.035Z,14.37
2023-05-09T17:14:25.998Z,14.37
2023-05-09T17:16:52.955Z,14.28
2023-05-09T17:19:23.447Z,14.32
2023-05-09T17:21:50.180Z,14.20
2023-05-09T17:24:17.362Z,14.21
2023-05-09T17:26:43.957Z,14.23
2023-05-09T17:29:12.280Z,14.22
2023-05-09T17:31:39.345Z,14.18
2023-05-09T17:34:06.366Z,14.20
2023-05-09T17:36:33.867Z,14.20
2023-05-09T17:39:02.208Z,14.26
2023-05-09T17:41:29.306Z,14.22
2023-05-09T17:43:58.831Z,14.26
2023-05-09T17:46:25.312Z,14.23
2023-05-09T17:48:52.303Z,14.19
2023-05-09T17:51:18.931Z,14.19
2023-05-09T17:53:46.371Z,14.24
2023-05-09T17:56:12.982Z,14.22
2023-05-09T17:58:39.529Z,14.22
2023-05-09T18:01:06.990Z,14.16
2023-05-09T18:03:33.928Z,14.19
2023-05-09T18:06:01.600Z,14.12
2023-05-09T18:08:31.685Z,14.08
2023-05-09T18:10:58.159Z,14.05
2023-05-09T18:13:25.113Z,14.04
2023-05-09T18:15:53.970Z,14.00
2023-05-09T18:18:21.057Z,13.93
2023-05-09T18:20:47.895Z,13.99
2023-05-09T18:23:14.848Z,13.91
2023-05-09T18:25:42.212Z,13.87
2023-05-09T18:28:09.447Z,13.82
2023-05-09T18:30:36.211Z,13.75
2023-05-09T18:33:03.119Z,13.74
2023-05-09T18:35:29.936Z,13.72
2023-05-09T18:37:56.489Z,13.74
2023-05-09T18:40:23.047Z,13.66
2023-05-09T18:42:49.646Z,13.64
2023-05-09T18:45:16.279Z,13.67
2023-05-09T18:47:42.859Z,13.55
2023-05-09T18:50:09.944Z,13.61
2023-05-09T18:52:36.569Z,13.60
2023-05-09T18:55:03.387Z,13.58
2023-05-09T18:57:29.930Z,13.51
2023-05-09T18:59:56.681Z,13.51
2023-05-09T19:02:24.880Z,13.51
2023-05-09T19:04:52.046Z,13.46
2023-05-09T19:07:18.749Z,13.46
2023-05-09T19:09:45.853Z,13.49
2023-05-09T19:12:13.689Z,13.41
2023-05-09T19:14:41.005Z,13.33
2023-05-09T19:17:09.154Z,13.33
2023-05-09T19:19:35.662Z,13.35
2023-05-09T19:22:02.282Z,13.31
2023-05-09T19:24:28.848Z,13.32
2023-05-09T19:26:55.773Z,13.28
2023-05-09T19:29:22.327Z,13.25
2023-05-09T19:31:48.874Z,13.26
2023-05-09T19:34:15.606Z,13.21
2023-05-09T19:36:42.377Z,13.25
2023-05-09T19:39:09.361Z,13.24
2023-05-09T19:41:36.181Z,13.23
2023-05-09T19:44:02.824Z,13.22
2023-05-09T19:46:30.229Z,13.23
2023-05-09T19:48:56.933Z,13.18
2023-05-09T19:51:23.633Z,13.20
2023-05-09T19:53:50.438Z,13.14
2023-05-09T19:56:17.286Z,13.12
2023-05-09T19:58:44.150Z,13.13
2023-05-09T20:01:11.389Z,13.10
2023-05-09T20:03:41.424Z,13.03
2023-05-09T20:06:09.093Z,13.10
2023-05-09T20:08:36.051Z,13.09
2023-05-09T20:11:03.242Z,13.07
2023-05-09T20:13:31.560Z,13.02
2023-05-09T20:16:00.185Z,13.04
2023-05-09T20:18:27.143Z,13.04
2023-05-09T20:20:55.020Z,13.01
2023-05-09T20:23:21.985Z,12.96
2023-05-09T20:25:48.652Z,12.93
2023-05-09T20:28:20.093Z,12.86
2023-05-09T20:30:47.432Z,12.83
2023-05-09T20:33:14.085Z,12.85
2023-05-09T20:35:43.432Z,12.80
2023-05-09T20:38:11.059Z,12.80
2023-05-09T20:40:37.908Z,12.77
2023-05-09T20:43:04.634Z,12.83
2023-05-09T20:45:31.489Z,12.76
2023-05-09T20:47:59.138Z,12.79
2023-05-09T20:50:25.872Z,12.73
2023-05-09T20:52:52.594Z,12.77
2023-05-09T20:55:19.383Z,12.80
2023-05-09T20:57:46.093Z,12.80
2023-05-09T21:00:13.277Z,12.71
2023-05-09T21:02:43.056Z,12.79
2023-05-09T21:05:09.880Z,12.79
2023-05-09T21:07:36.697Z,12.77
2023-05-09T21:10:03.769Z,12.75
2023-05-09T21:12:30.712Z,12.78
2023-05-09T21:14:57.784Z,12.75
2023-05-09T21:17:24.501Z,12.79
2023-05-09T21:19:52.088Z,12.75
2023-05-09T21:22:18.948Z,12.79
2023-05-09T21:24:45.593Z,12.77
2023-05-09T21:27:12.497Z,12.74
2023-05-09T21:29:39.350Z,12.76
2023-05-09T21:32:06.110Z,12.77
2023-05-09T21:34:32.982Z,12.79
2023-05-09T21:36:59.983Z,12.73
2023-05-09T21:39:26.530Z,12.70
2023-05-09T21:41:53.373Z,12.72
2023-05-09T21:44:20.089Z,12.73
2023-05-09T21:46:46.818Z,12.69
2023-05-09T21:49:16.750Z,12.73
2023-05-09T21:51:44.575Z,12.70
2023-05-09T21:54:11.191Z,12.73
2023-05-09T21:56:38.378Z,12.72
2023-05-09T21:59:05.260Z,12.70
2023-05-09T22:01:31.861Z,12.74
2023-05-09T22:03:59.037Z,12.74
2023-05-09T22:06:25.963Z,12.76
2023-05-09T22:08:52.499Z,12.71
2023-05-09T22:11:20.224Z,12.68
2023-05-09T22:13:46.922Z,12.72
2023-05-09T22:16:14.074Z,12.72
2023-05-09T22:18:41.078Z,12.69
2023-05-09T22:21:07.628Z,12.73
2023-05-09T22:23:34.273Z,12.67
2023-05-09T22:26:00.941Z,12.66
2023-05-09T22:28:27.445Z,12.66
2023-05-09T22:30:54.070Z,12.67
2023-05-09T22:33:20.813Z,12.72
2023-05-09T22:35:47.343Z,12.66
2023-05-09T22:38:13.785Z,12.69
2023-05-09T22:40:40.349Z,12.68
2023-05-09T22:43:06.861Z,12.67
2023-05-09T22:45:33.367Z,12.64
2023-05-09T22:47:59.866Z,12.70
2023-05-09T22:50:26.414Z,12.72
2023-05-09T22:52:53.429Z,12.72
2023-05-09T22:55:20.196Z,12.66
2023-05-09T22:57:47.401Z,12.69
2023-05-09T23:00:15.124Z,12.70
2023-05-09T23:02:42.012Z,12.69
2023-05-09T23:05:09.164Z,12.71
2023-05-09T23:07:36.119Z,12.67
2023-05-09T23:10:03.643Z,12.66
2023-05-09T23:12:30.896Z,12.65
2023-05-09T23:14:57.590Z,12.62
2023-05-09T23:17:24.590Z,12.68
2023-05-09T23:19:51.117Z,12.64
2023-05-09T23:22:17.818Z,12.59
2023-05-09T23:24:44.410Z,12.58
2023-05-09T23:27:11.211Z,12.61
2023-05-09T23:29:37.721Z,12.63
2023-05-09T23:32:04.714Z,12.60
2023-05-09T23:34:31.702Z,12.55
2023-05-09T23:36:58.412Z,12.59
2023-05-09T23:39:24.934Z,12.57
2023-05-09T23:41:51.607Z,12.59
2023-05-09T23:44:18.189Z,12.57
2023-05-09T23:46:44.781Z,12.55
2023-05-09T23:49:13.322Z,12.52
2023-05-09T23:51:40.417Z,12.53
2023-05-09T23:54:07.677Z,12.52
2023-05-09T23:56:34.242Z,12.55
2023-05-09T23:59:00.920Z,12.53
